<?xml version="1.0" encoding="UTF-8" standalone="no" ?>
<gpx xmlns="http://www.topografix.com/GPX/1/1" xmlns:xsi="http://www.w3.org/2001/XMLSchema-instance" xsi:schemaLocation="http://www.topografix.com/GPX/1/1 http://www.topografix.com/GPX/1/1/gpx.xsd" version="1.1" creator="VisuGPX - https://www.visugpx.com">
  <metadata>
    <name>boucle du pic du gar</name>
    <desc><![CDATA[boucle deu pic du gar
depart de Bezins garraux
passage par le col de caube]]></desc>
  </metadata>
  <wpt lat="42.93283" lon="0.69705">
    <ele>733</ele>
    <name><![CDATA[Bezins Garraux]]></name>
    <desc><![CDATA[19-MAI-09 17:05:33]]></desc>
    <cmt><![CDATA[19-MAI-09 17:05:33]]></cmt>
  </wpt>
  <wpt lat="42.95024" lon="0.6987">
    <ele>1792</ele>
    <name><![CDATA[Pic de Gar]]></name>
    <desc><![CDATA[19-MAI-09 12:33:48]]></desc>
    <cmt><![CDATA[19-MAI-09 12:33:48]]></cmt>
  </wpt>
  <trk>
    <name><![CDATA[ACTIVE LOG 002]]></name>
    <trkseg>
      <trkpt lat="42.94566" lon="0.69104">
        <ele>1445.4794922</ele>
        <time>2009-05-19T09:41:12Z</time>
      </trkpt>
      <trkpt lat="42.94568" lon="0.69108">
        <ele>1468.0705566</ele>
        <time>2009-05-19T09:42:04Z</time>
      </trkpt>
      <trkpt lat="42.94566" lon="0.6911">
        <ele>1467.1091309</ele>
        <time>2009-05-19T09:43:13Z</time>
      </trkpt>
      <trkpt lat="42.94566" lon="0.69109">
        <ele>1466.628418</ele>
        <time>2009-05-19T09:43:49Z</time>
      </trkpt>
      <trkpt lat="42.94569" lon="0.69108">
        <ele>1472.3964844</ele>
        <time>2009-05-19T09:44:35Z</time>
      </trkpt>
      <trkpt lat="42.94565" lon="0.69099">
        <ele>1477.6835938</ele>
        <time>2009-05-19T09:45:12Z</time>
      </trkpt>
      <trkpt lat="42.94564" lon="0.691">
        <ele>1474.7998047</ele>
        <time>2009-05-19T09:45:46Z</time>
      </trkpt>
      <trkpt lat="42.94567" lon="0.69106">
        <ele>1469.0319824</ele>
        <time>2009-05-19T09:47:04Z</time>
      </trkpt>
      <trkpt lat="42.94568" lon="0.69103">
        <ele>1464.2250977</ele>
        <time>2009-05-19T09:48:02Z</time>
      </trkpt>
      <trkpt lat="42.94569" lon="0.69103">
        <ele>1464.2250977</ele>
        <time>2009-05-19T09:48:15Z</time>
      </trkpt>
      <trkpt lat="42.94574" lon="0.691">
        <ele>1464.2250977</ele>
        <time>2009-05-19T09:48:28Z</time>
      </trkpt>
      <trkpt lat="42.94583" lon="0.6911">
        <ele>1466.628418</ele>
        <time>2009-05-19T09:48:39Z</time>
      </trkpt>
      <trkpt lat="42.94595" lon="0.69124">
        <ele>1466.1477051</ele>
        <time>2009-05-19T09:48:53Z</time>
      </trkpt>
      <trkpt lat="42.94609" lon="0.69134">
        <ele>1469.9931641</ele>
        <time>2009-05-19T09:49:06Z</time>
      </trkpt>
      <trkpt lat="42.94619" lon="0.69144">
        <ele>1474.3190918</ele>
        <time>2009-05-19T09:49:18Z</time>
      </trkpt>
      <trkpt lat="42.94625" lon="0.69153">
        <ele>1477.203125</ele>
        <time>2009-05-19T09:49:32Z</time>
      </trkpt>
      <trkpt lat="42.94628" lon="0.69162">
        <ele>1474.3190918</ele>
        <time>2009-05-19T09:49:48Z</time>
      </trkpt>
      <trkpt lat="42.94628" lon="0.69167">
        <ele>1472.8771973</ele>
        <time>2009-05-19T09:50:04Z</time>
      </trkpt>
      <trkpt lat="42.94633" lon="0.69179">
        <ele>1469.9931641</ele>
        <time>2009-05-19T09:50:23Z</time>
      </trkpt>
      <trkpt lat="42.94634" lon="0.69191">
        <ele>1470.9545898</ele>
        <time>2009-05-19T09:50:37Z</time>
      </trkpt>
      <trkpt lat="42.94637" lon="0.692">
        <ele>1474.3190918</ele>
        <time>2009-05-19T09:50:51Z</time>
      </trkpt>
      <trkpt lat="42.94639" lon="0.69208">
        <ele>1476.2416992</ele>
        <time>2009-05-19T09:51:05Z</time>
      </trkpt>
      <trkpt lat="42.94643" lon="0.69221">
        <ele>1478.1643066</ele>
        <time>2009-05-19T09:51:21Z</time>
      </trkpt>
      <trkpt lat="42.94648" lon="0.69235">
        <ele>1480.567627</ele>
        <time>2009-05-19T09:51:37Z</time>
      </trkpt>
      <trkpt lat="42.94654" lon="0.69249">
        <ele>1480.0869141</ele>
        <time>2009-05-19T09:51:51Z</time>
      </trkpt>
      <trkpt lat="42.9466" lon="0.69263">
        <ele>1482.4902344</ele>
        <time>2009-05-19T09:52:05Z</time>
      </trkpt>
      <trkpt lat="42.94668" lon="0.69278">
        <ele>1480.567627</ele>
        <time>2009-05-19T09:52:19Z</time>
      </trkpt>
      <trkpt lat="42.94675" lon="0.69285">
        <ele>1482.9707031</ele>
        <time>2009-05-19T09:52:29Z</time>
      </trkpt>
      <trkpt lat="42.94683" lon="0.69299">
        <ele>1484.4130859</ele>
        <time>2009-05-19T09:52:42Z</time>
      </trkpt>
      <trkpt lat="42.94689" lon="0.69305">
        <ele>1485.3742676</ele>
        <time>2009-05-19T09:52:56Z</time>
      </trkpt>
      <trkpt lat="42.94705" lon="0.69325">
        <ele>1482.9707031</ele>
        <time>2009-05-19T09:53:15Z</time>
      </trkpt>
      <trkpt lat="42.94717" lon="0.69331">
        <ele>1485.3742676</ele>
        <time>2009-05-19T09:53:30Z</time>
      </trkpt>
      <trkpt lat="42.94732" lon="0.69335">
        <ele>1487.296875</ele>
        <time>2009-05-19T09:53:48Z</time>
      </trkpt>
      <trkpt lat="42.94744" lon="0.69336">
        <ele>1488.2583008</ele>
        <time>2009-05-19T09:54:04Z</time>
      </trkpt>
      <trkpt lat="42.94745" lon="0.69336">
        <ele>1488.2583008</ele>
        <time>2009-05-19T09:54:05Z</time>
      </trkpt>
      <trkpt lat="42.94762" lon="0.69337">
        <ele>1489.7001953</ele>
        <time>2009-05-19T09:54:23Z</time>
      </trkpt>
      <trkpt lat="42.94777" lon="0.69337">
        <ele>1489.7001953</ele>
        <time>2009-05-19T09:54:41Z</time>
      </trkpt>
      <trkpt lat="42.94789" lon="0.69341">
        <ele>1489.7001953</ele>
        <time>2009-05-19T09:54:58Z</time>
      </trkpt>
      <trkpt lat="42.94798" lon="0.69342">
        <ele>1491.1420898</ele>
        <time>2009-05-19T09:55:12Z</time>
      </trkpt>
      <trkpt lat="42.94807" lon="0.69344">
        <ele>1493.0646973</ele>
        <time>2009-05-19T09:55:29Z</time>
      </trkpt>
      <trkpt lat="42.94821" lon="0.69347">
        <ele>1496.4294434</ele>
        <time>2009-05-19T09:55:49Z</time>
      </trkpt>
      <trkpt lat="42.94835" lon="0.69346">
        <ele>1499.7939453</ele>
        <time>2009-05-19T09:56:09Z</time>
      </trkpt>
      <trkpt lat="42.94843" lon="0.69342">
        <ele>1500.2749023</ele>
        <time>2009-05-19T09:56:30Z</time>
      </trkpt>
      <trkpt lat="42.94851" lon="0.69342">
        <ele>1502.1972656</ele>
        <time>2009-05-19T09:56:45Z</time>
      </trkpt>
      <trkpt lat="42.94858" lon="0.69354">
        <ele>1493.0646973</ele>
        <time>2009-05-19T09:57:23Z</time>
      </trkpt>
      <trkpt lat="42.94864" lon="0.69349">
        <ele>1502.1972656</ele>
        <time>2009-05-19T09:57:38Z</time>
      </trkpt>
      <trkpt lat="42.94872" lon="0.69343">
        <ele>1505.5620117</ele>
        <time>2009-05-19T09:57:52Z</time>
      </trkpt>
      <trkpt lat="42.94883" lon="0.6934">
        <ele>1507.0039063</ele>
        <time>2009-05-19T09:58:12Z</time>
      </trkpt>
      <trkpt lat="42.94889" lon="0.69342">
        <ele>1510.3684082</ele>
        <time>2009-05-19T09:58:27Z</time>
      </trkpt>
      <trkpt lat="42.94895" lon="0.69344">
        <ele>1510.8491211</ele>
        <time>2009-05-19T09:58:41Z</time>
      </trkpt>
      <trkpt lat="42.94901" lon="0.69346">
        <ele>1512.7717285</ele>
        <time>2009-05-19T09:58:58Z</time>
      </trkpt>
      <trkpt lat="42.94905" lon="0.6935">
        <ele>1516.1364746</ele>
        <time>2009-05-19T09:59:15Z</time>
      </trkpt>
      <trkpt lat="42.94901" lon="0.69353">
        <ele>1520.4624023</ele>
        <time>2009-05-19T09:59:31Z</time>
      </trkpt>
      <trkpt lat="42.94899" lon="0.69355">
        <ele>1523.3464355</ele>
        <time>2009-05-19T09:59:46Z</time>
      </trkpt>
      <trkpt lat="42.94901" lon="0.69358">
        <ele>1524.7883301</ele>
        <time>2009-05-19T10:00:00Z</time>
      </trkpt>
      <trkpt lat="42.94901" lon="0.69361">
        <ele>1526.7109375</ele>
        <time>2009-05-19T10:00:16Z</time>
      </trkpt>
      <trkpt lat="42.94905" lon="0.69361">
        <ele>1527.6721191</ele>
        <time>2009-05-19T10:00:30Z</time>
      </trkpt>
      <trkpt lat="42.94911" lon="0.69358">
        <ele>1530.0754395</ele>
        <time>2009-05-19T10:00:45Z</time>
      </trkpt>
      <trkpt lat="42.94917" lon="0.69356">
        <ele>1532.4790039</ele>
        <time>2009-05-19T10:01:00Z</time>
      </trkpt>
      <trkpt lat="42.94923" lon="0.69353">
        <ele>1533.4401855</ele>
        <time>2009-05-19T10:01:12Z</time>
      </trkpt>
      <trkpt lat="42.94923" lon="0.69353">
        <ele>1533.4401855</ele>
        <time>2009-05-19T10:01:13Z</time>
      </trkpt>
      <trkpt lat="42.94928" lon="0.69354">
        <ele>1533.4401855</ele>
        <time>2009-05-19T10:01:18Z</time>
      </trkpt>
      <trkpt lat="42.94942" lon="0.6935">
        <ele>1533.9208984</ele>
        <time>2009-05-19T10:01:36Z</time>
      </trkpt>
      <trkpt lat="42.94947" lon="0.69349">
        <ele>1533.9208984</ele>
        <time>2009-05-19T10:01:42Z</time>
      </trkpt>
      <trkpt lat="42.94955" lon="0.69348">
        <ele>1536.3242188</ele>
        <time>2009-05-19T10:01:58Z</time>
      </trkpt>
      <trkpt lat="42.94958" lon="0.69352">
        <ele>1539.2080078</ele>
        <time>2009-05-19T10:02:11Z</time>
      </trkpt>
      <trkpt lat="42.94966" lon="0.69348">
        <ele>1542.092041</ele>
        <time>2009-05-19T10:02:27Z</time>
      </trkpt>
      <trkpt lat="42.94978" lon="0.69344">
        <ele>1544.0146484</ele>
        <time>2009-05-19T10:02:45Z</time>
      </trkpt>
      <trkpt lat="42.94991" lon="0.69346">
        <ele>1546.4179688</ele>
        <time>2009-05-19T10:03:04Z</time>
      </trkpt>
      <trkpt lat="42.95001" lon="0.69345">
        <ele>1548.8212891</ele>
        <time>2009-05-19T10:03:21Z</time>
      </trkpt>
      <trkpt lat="42.95011" lon="0.69341">
        <ele>1551.7053223</ele>
        <time>2009-05-19T10:03:40Z</time>
      </trkpt>
      <trkpt lat="42.95017" lon="0.69341">
        <ele>1554.1086426</ele>
        <time>2009-05-19T10:03:55Z</time>
      </trkpt>
      <trkpt lat="42.95028" lon="0.69329">
        <ele>1557.4731445</ele>
        <time>2009-05-19T10:04:15Z</time>
      </trkpt>
      <trkpt lat="42.95035" lon="0.69312">
        <ele>1560.3569336</ele>
        <time>2009-05-19T10:04:36Z</time>
      </trkpt>
      <trkpt lat="42.95037" lon="0.69301">
        <ele>1563.7214355</ele>
        <time>2009-05-19T10:04:54Z</time>
      </trkpt>
      <trkpt lat="42.9504" lon="0.69294">
        <ele>1566.6057129</ele>
        <time>2009-05-19T10:05:10Z</time>
      </trkpt>
      <trkpt lat="42.95043" lon="0.69279">
        <ele>1569.4897461</ele>
        <time>2009-05-19T10:05:29Z</time>
      </trkpt>
      <trkpt lat="42.95045" lon="0.69268">
        <ele>1571.8928223</ele>
        <time>2009-05-19T10:05:45Z</time>
      </trkpt>
      <trkpt lat="42.95051" lon="0.69269">
        <ele>1573.8154297</ele>
        <time>2009-05-19T10:06:00Z</time>
      </trkpt>
      <trkpt lat="42.95055" lon="0.6928">
        <ele>1576.6994629</ele>
        <time>2009-05-19T10:06:18Z</time>
      </trkpt>
      <trkpt lat="42.95059" lon="0.69287">
        <ele>1579.1025391</ele>
        <time>2009-05-19T10:06:35Z</time>
      </trkpt>
      <trkpt lat="42.9506" lon="0.69288">
        <ele>1580.064209</ele>
        <time>2009-05-19T10:06:52Z</time>
      </trkpt>
      <trkpt lat="42.95064" lon="0.69292">
        <ele>1582.4675293</ele>
        <time>2009-05-19T10:07:10Z</time>
      </trkpt>
      <trkpt lat="42.95066" lon="0.69296">
        <ele>1584.3901367</ele>
        <time>2009-05-19T10:07:42Z</time>
      </trkpt>
      <trkpt lat="42.95071" lon="0.69298">
        <ele>1586.7932129</ele>
        <time>2009-05-19T10:08:13Z</time>
      </trkpt>
      <trkpt lat="42.9508" lon="0.69303">
        <ele>1590.157959</ele>
        <time>2009-05-19T10:08:32Z</time>
      </trkpt>
      <trkpt lat="42.95092" lon="0.69303">
        <ele>1593.5224609</ele>
        <time>2009-05-19T10:08:54Z</time>
      </trkpt>
      <trkpt lat="42.95099" lon="0.69304">
        <ele>1596.4067383</ele>
        <time>2009-05-19T10:09:09Z</time>
      </trkpt>
      <trkpt lat="42.95106" lon="0.69305">
        <ele>1599.7712402</ele>
        <time>2009-05-19T10:09:25Z</time>
      </trkpt>
      <trkpt lat="42.95112" lon="0.69305">
        <ele>1602.1743164</ele>
        <time>2009-05-19T10:09:39Z</time>
      </trkpt>
      <trkpt lat="42.95116" lon="0.69306">
        <ele>1604.5776367</ele>
        <time>2009-05-19T10:09:55Z</time>
      </trkpt>
      <trkpt lat="42.95121" lon="0.69307">
        <ele>1606.980957</ele>
        <time>2009-05-19T10:10:12Z</time>
      </trkpt>
      <trkpt lat="42.9513" lon="0.69304">
        <ele>1611.3068848</ele>
        <time>2009-05-19T10:10:29Z</time>
      </trkpt>
      <trkpt lat="42.95135" lon="0.69305">
        <ele>1614.190918</ele>
        <time>2009-05-19T10:10:45Z</time>
      </trkpt>
      <trkpt lat="42.95132" lon="0.69314">
        <ele>1615.6330566</ele>
        <time>2009-05-19T10:11:01Z</time>
      </trkpt>
      <trkpt lat="42.95125" lon="0.69322">
        <ele>1615.6330566</ele>
        <time>2009-05-19T10:11:18Z</time>
      </trkpt>
      <trkpt lat="42.95124" lon="0.69324">
        <ele>1615.1523438</ele>
        <time>2009-05-19T10:11:40Z</time>
      </trkpt>
      <trkpt lat="42.95123" lon="0.69334">
        <ele>1616.5942383</ele>
        <time>2009-05-19T10:12:04Z</time>
      </trkpt>
      <trkpt lat="42.95119" lon="0.69348">
        <ele>1618.9975586</ele>
        <time>2009-05-19T10:12:21Z</time>
      </trkpt>
      <trkpt lat="42.95117" lon="0.6936">
        <ele>1620.920166</ele>
        <time>2009-05-19T10:12:36Z</time>
      </trkpt>
      <trkpt lat="42.95118" lon="0.69369">
        <ele>1622.3620605</ele>
        <time>2009-05-19T10:12:44Z</time>
      </trkpt>
      <trkpt lat="42.95123" lon="0.69391">
        <ele>1625.2458496</ele>
        <time>2009-05-19T10:13:02Z</time>
      </trkpt>
      <trkpt lat="42.95116" lon="0.69407">
        <ele>1627.1687012</ele>
        <time>2009-05-19T10:13:19Z</time>
      </trkpt>
      <trkpt lat="42.95109" lon="0.69425">
        <ele>1630.0527344</ele>
        <time>2009-05-19T10:13:38Z</time>
      </trkpt>
      <trkpt lat="42.95102" lon="0.6944">
        <ele>1633.8979492</ele>
        <time>2009-05-19T10:13:58Z</time>
      </trkpt>
      <trkpt lat="42.95094" lon="0.69453">
        <ele>1638.223877</ele>
        <time>2009-05-19T10:14:15Z</time>
      </trkpt>
      <trkpt lat="42.95084" lon="0.69466">
        <ele>1642.5498047</ele>
        <time>2009-05-19T10:14:34Z</time>
      </trkpt>
      <trkpt lat="42.95076" lon="0.69479">
        <ele>1646.3952637</ele>
        <time>2009-05-19T10:14:55Z</time>
      </trkpt>
      <trkpt lat="42.95069" lon="0.69493">
        <ele>1649.7597656</ele>
        <time>2009-05-19T10:15:16Z</time>
      </trkpt>
      <trkpt lat="42.95064" lon="0.69503">
        <ele>1652.6435547</ele>
        <time>2009-05-19T10:15:35Z</time>
      </trkpt>
      <trkpt lat="42.95063" lon="0.69504">
        <ele>1653.1242676</ele>
        <time>2009-05-19T10:15:55Z</time>
      </trkpt>
      <trkpt lat="42.9506" lon="0.69506">
        <ele>1654.0856934</ele>
        <time>2009-05-19T10:16:12Z</time>
      </trkpt>
      <trkpt lat="42.95056" lon="0.69514">
        <ele>1655.5275879</ele>
        <time>2009-05-19T10:16:31Z</time>
      </trkpt>
      <trkpt lat="42.9505" lon="0.69523">
        <ele>1658.8920898</ele>
        <time>2009-05-19T10:16:50Z</time>
      </trkpt>
      <trkpt lat="42.95043" lon="0.69531">
        <ele>1662.7375488</ele>
        <time>2009-05-19T10:17:11Z</time>
      </trkpt>
      <trkpt lat="42.95037" lon="0.69536">
        <ele>1665.621582</ele>
        <time>2009-05-19T10:17:28Z</time>
      </trkpt>
      <trkpt lat="42.95032" lon="0.69541">
        <ele>1668.5053711</ele>
        <time>2009-05-19T10:17:46Z</time>
      </trkpt>
      <trkpt lat="42.95027" lon="0.69547">
        <ele>1671.3891602</ele>
        <time>2009-05-19T10:18:04Z</time>
      </trkpt>
      <trkpt lat="42.95024" lon="0.69556">
        <ele>1675.234375</ele>
        <time>2009-05-19T10:18:25Z</time>
      </trkpt>
      <trkpt lat="42.95019" lon="0.69562">
        <ele>1678.5993652</ele>
        <time>2009-05-19T10:18:44Z</time>
      </trkpt>
      <trkpt lat="42.95015" lon="0.69569">
        <ele>1681.4831543</ele>
        <time>2009-05-19T10:19:02Z</time>
      </trkpt>
      <trkpt lat="42.95014" lon="0.69577">
        <ele>1685.3283691</ele>
        <time>2009-05-19T10:19:21Z</time>
      </trkpt>
      <trkpt lat="42.95012" lon="0.69586">
        <ele>1689.6542969</ele>
        <time>2009-05-19T10:19:44Z</time>
      </trkpt>
      <trkpt lat="42.95011" lon="0.69595">
        <ele>1693.019043</ele>
        <time>2009-05-19T10:20:05Z</time>
      </trkpt>
      <trkpt lat="42.95009" lon="0.69602">
        <ele>1695.4223633</ele>
        <time>2009-05-19T10:20:22Z</time>
      </trkpt>
      <trkpt lat="42.95007" lon="0.69611">
        <ele>1698.3061523</ele>
        <time>2009-05-19T10:20:40Z</time>
      </trkpt>
      <trkpt lat="42.95005" lon="0.69619">
        <ele>1701.1901855</ele>
        <time>2009-05-19T10:20:58Z</time>
      </trkpt>
      <trkpt lat="42.95003" lon="0.69626">
        <ele>1704.5546875</ele>
        <time>2009-05-19T10:21:15Z</time>
      </trkpt>
      <trkpt lat="42.95" lon="0.69633">
        <ele>1706.9580078</ele>
        <time>2009-05-19T10:21:34Z</time>
      </trkpt>
      <trkpt lat="42.94994" lon="0.69639">
        <ele>1710.3227539</ele>
        <time>2009-05-19T10:21:54Z</time>
      </trkpt>
      <trkpt lat="42.94988" lon="0.69644">
        <ele>1713.2067871</ele>
        <time>2009-05-19T10:22:13Z</time>
      </trkpt>
      <trkpt lat="42.94983" lon="0.6965">
        <ele>1716.0905762</ele>
        <time>2009-05-19T10:22:30Z</time>
      </trkpt>
      <trkpt lat="42.94977" lon="0.69657">
        <ele>1718.9746094</ele>
        <time>2009-05-19T10:22:50Z</time>
      </trkpt>
      <trkpt lat="42.94973" lon="0.69668">
        <ele>1722.3391113</ele>
        <time>2009-05-19T10:23:10Z</time>
      </trkpt>
      <trkpt lat="42.94971" lon="0.69681">
        <ele>1725.2231445</ele>
        <time>2009-05-19T10:23:30Z</time>
      </trkpt>
      <trkpt lat="42.94972" lon="0.69691">
        <ele>1726.6652832</ele>
        <time>2009-05-19T10:23:47Z</time>
      </trkpt>
      <trkpt lat="42.94973" lon="0.69708">
        <ele>1730.9912109</ele>
        <time>2009-05-19T10:24:05Z</time>
      </trkpt>
      <trkpt lat="42.94974" lon="0.69716">
        <ele>1732.9135742</ele>
        <time>2009-05-19T10:24:22Z</time>
      </trkpt>
      <trkpt lat="42.94973" lon="0.69724">
        <ele>1735.3168945</ele>
        <time>2009-05-19T10:24:59Z</time>
      </trkpt>
      <trkpt lat="42.94976" lon="0.69735">
        <ele>1738.2009277</ele>
        <time>2009-05-19T10:25:16Z</time>
      </trkpt>
      <trkpt lat="42.94982" lon="0.69743">
        <ele>1741.5656738</ele>
        <time>2009-05-19T10:25:34Z</time>
      </trkpt>
      <trkpt lat="42.94993" lon="0.69751">
        <ele>1744.9301758</ele>
        <time>2009-05-19T10:25:54Z</time>
      </trkpt>
      <trkpt lat="42.95004" lon="0.69756">
        <ele>1746.8527832</ele>
        <time>2009-05-19T10:26:12Z</time>
      </trkpt>
      <trkpt lat="42.95016" lon="0.69764">
        <ele>1749.2561035</ele>
        <time>2009-05-19T10:26:34Z</time>
      </trkpt>
      <trkpt lat="42.95025" lon="0.69773">
        <ele>1752.6206055</ele>
        <time>2009-05-19T10:26:56Z</time>
      </trkpt>
      <trkpt lat="42.95033" lon="0.69782">
        <ele>1756.4660645</ele>
        <time>2009-05-19T10:27:16Z</time>
      </trkpt>
      <trkpt lat="42.95039" lon="0.69788">
        <ele>1759.3500977</ele>
        <time>2009-05-19T10:27:33Z</time>
      </trkpt>
      <trkpt lat="42.95047" lon="0.69795">
        <ele>1761.753418</ele>
        <time>2009-05-19T10:27:52Z</time>
      </trkpt>
      <trkpt lat="42.95055" lon="0.69804">
        <ele>1764.637207</ele>
        <time>2009-05-19T10:28:11Z</time>
      </trkpt>
      <trkpt lat="42.95059" lon="0.69811">
        <ele>1767.0405273</ele>
        <time>2009-05-19T10:28:26Z</time>
      </trkpt>
      <trkpt lat="42.95067" lon="0.6982">
        <ele>1768.9631348</ele>
        <time>2009-05-19T10:28:43Z</time>
      </trkpt>
      <trkpt lat="42.95071" lon="0.69831">
        <ele>1771.8469238</ele>
        <time>2009-05-19T10:29:02Z</time>
      </trkpt>
      <trkpt lat="42.95065" lon="0.69846">
        <ele>1774.2504883</ele>
        <time>2009-05-19T10:29:22Z</time>
      </trkpt>
      <trkpt lat="42.95058" lon="0.69857">
        <ele>1778.576416</ele>
        <time>2009-05-19T10:29:44Z</time>
      </trkpt>
      <trkpt lat="42.95054" lon="0.69859">
        <ele>1780.4990234</ele>
        <time>2009-05-19T10:30:00Z</time>
      </trkpt>
      <trkpt lat="42.95048" lon="0.69859">
        <ele>1781.940918</ele>
        <time>2009-05-19T10:30:18Z</time>
      </trkpt>
      <trkpt lat="42.95045" lon="0.6986">
        <ele>1782.9020996</ele>
        <time>2009-05-19T10:30:35Z</time>
      </trkpt>
      <trkpt lat="42.95044" lon="0.69864">
        <ele>1785.3054199</ele>
        <time>2009-05-19T10:30:50Z</time>
      </trkpt>
      <trkpt lat="42.95043" lon="0.69865">
        <ele>1785.7861328</ele>
        <time>2009-05-19T10:31:03Z</time>
      </trkpt>
      <trkpt lat="42.9504" lon="0.69868">
        <ele>1787.7087402</ele>
        <time>2009-05-19T10:31:20Z</time>
      </trkpt>
      <trkpt lat="42.95035" lon="0.69869">
        <ele>1789.1508789</ele>
        <time>2009-05-19T10:31:35Z</time>
      </trkpt>
      <trkpt lat="42.95028" lon="0.69871">
        <ele>1792.0349121</ele>
        <time>2009-05-19T10:31:51Z</time>
      </trkpt>
      <trkpt lat="42.95026" lon="0.6987">
        <ele>1792.0349121</ele>
        <time>2009-05-19T10:32:06Z</time>
      </trkpt>
      <trkpt lat="42.95023" lon="0.69873">
        <ele>1792.0349121</ele>
        <time>2009-05-19T10:32:20Z</time>
      </trkpt>
      <trkpt lat="42.95022" lon="0.69872">
        <ele>1792.0349121</ele>
        <time>2009-05-19T10:32:38Z</time>
      </trkpt>
      <trkpt lat="42.95022" lon="0.69871">
        <ele>1792.0349121</ele>
        <time>2009-05-19T10:33:02Z</time>
      </trkpt>
      <trkpt lat="42.95023" lon="0.69871">
        <ele>1792.515625</ele>
        <time>2009-05-19T10:33:21Z</time>
      </trkpt>
      <trkpt lat="42.95024" lon="0.6987">
        <ele>1791.5541992</ele>
        <time>2009-05-19T10:33:30Z</time>
      </trkpt>
      <trkpt lat="42.95024" lon="0.69869">
        <ele>1792.0349121</ele>
        <time>2009-05-19T10:34:09Z</time>
      </trkpt>
      <trkpt lat="42.95024" lon="0.69869">
        <ele>1792.0349121</ele>
        <time>2009-05-19T10:34:30Z</time>
      </trkpt>
      <trkpt lat="42.95024" lon="0.6987">
        <ele>1792.0349121</ele>
        <time>2009-05-19T10:34:38Z</time>
      </trkpt>
      <trkpt lat="42.95022" lon="0.6987">
        <ele>1792.515625</ele>
        <time>2009-05-19T10:34:49Z</time>
      </trkpt>
      <trkpt lat="42.95023" lon="0.69869">
        <ele>1792.515625</ele>
        <time>2009-05-19T10:35:14Z</time>
      </trkpt>
      <trkpt lat="42.95022" lon="0.6987">
        <ele>1792.515625</ele>
        <time>2009-05-19T10:35:48Z</time>
      </trkpt>
      <trkpt lat="42.95023" lon="0.69869">
        <ele>1792.0349121</ele>
        <time>2009-05-19T10:37:03Z</time>
      </trkpt>
      <trkpt lat="42.95023" lon="0.69869">
        <ele>1792.0349121</ele>
        <time>2009-05-19T10:37:32Z</time>
      </trkpt>
      <trkpt lat="42.95023" lon="0.6987">
        <ele>1787.7087402</ele>
        <time>2009-05-19T10:45:53Z</time>
      </trkpt>
      <trkpt lat="42.95026" lon="0.69868">
        <ele>1788.1896973</ele>
        <time>2009-05-19T10:46:14Z</time>
      </trkpt>
      <trkpt lat="42.95033" lon="0.69867">
        <ele>1787.2280273</ele>
        <time>2009-05-19T10:46:26Z</time>
      </trkpt>
      <trkpt lat="42.95035" lon="0.69875">
        <ele>1788.1896973</ele>
        <time>2009-05-19T10:46:39Z</time>
      </trkpt>
      <trkpt lat="42.95035" lon="0.69882">
        <ele>1788.1896973</ele>
        <time>2009-05-19T10:46:50Z</time>
      </trkpt>
      <trkpt lat="42.95037" lon="0.69886">
        <ele>1786.7473145</ele>
        <time>2009-05-19T10:47:00Z</time>
      </trkpt>
      <trkpt lat="42.9504" lon="0.69893">
        <ele>1786.7473145</ele>
        <time>2009-05-19T10:47:11Z</time>
      </trkpt>
      <trkpt lat="42.9504" lon="0.69894">
        <ele>1786.7473145</ele>
        <time>2009-05-19T10:47:12Z</time>
      </trkpt>
      <trkpt lat="42.95043" lon="0.69909">
        <ele>1788.1896973</ele>
        <time>2009-05-19T10:47:27Z</time>
      </trkpt>
      <trkpt lat="42.95047" lon="0.69917">
        <ele>1786.7473145</ele>
        <time>2009-05-19T10:47:40Z</time>
      </trkpt>
      <trkpt lat="42.95055" lon="0.69919">
        <ele>1784.8249512</ele>
        <time>2009-05-19T10:47:54Z</time>
      </trkpt>
      <trkpt lat="42.95056" lon="0.6992">
        <ele>1784.8249512</ele>
        <time>2009-05-19T10:48:08Z</time>
      </trkpt>
      <trkpt lat="42.95058" lon="0.6992">
        <ele>1784.8249512</ele>
        <time>2009-05-19T10:48:11Z</time>
      </trkpt>
      <trkpt lat="42.95065" lon="0.69921">
        <ele>1783.3828125</ele>
        <time>2009-05-19T10:48:23Z</time>
      </trkpt>
      <trkpt lat="42.95065" lon="0.6992">
        <ele>1780.9797363</ele>
        <time>2009-05-19T10:48:40Z</time>
      </trkpt>
      <trkpt lat="42.95065" lon="0.69919">
        <ele>1781.4602051</ele>
        <time>2009-05-19T10:48:42Z</time>
      </trkpt>
      <trkpt lat="42.9506" lon="0.69922">
        <ele>1781.4602051</ele>
        <time>2009-05-19T10:48:53Z</time>
      </trkpt>
      <trkpt lat="42.95061" lon="0.69921">
        <ele>1779.5375977</ele>
        <time>2009-05-19T10:50:42Z</time>
      </trkpt>
      <trkpt lat="42.95061" lon="0.69921">
        <ele>1780.0183105</ele>
        <time>2009-05-19T10:51:33Z</time>
      </trkpt>
    </trkseg>
  </trk>
</gpx>